Padma — 2CWE8 — position and weather

sailwx.info

Track history (hours):
 
Tides and Currents Weather Stations Pressure Air Temp Water Temp Dewpoint Dewpoint Depression Visibility Wind Speed Wind Dir Waves Ship Positions

Padma

Last reported at 2018-Apr-04 10:23 UTC. Time now 2018-Apr-23 19:31 UTC.
Position N 17°59' W 063°32'.
Warning: this ship's position is 19 days out of date.

Length 25 m.

Type: Sailing vessel. MMSI: 235076308.

Date/timePositionNaut miles runAvg speedWind from/ knotsBaromVisibWave heightAir tempDewpointWater temp
2018-Apr-04 10:23N 17°59' W 063°32'4 8.9
2018-Apr-04 09:54N 17°57' W 063°28'4 8.8
2018-Apr-04 09:25N 17°55' W 063°24'4 8.8
2018-Apr-04 09:00N 17°54' W 063°20'4 8.8
2018-Apr-04 08:30N 17°52' W 063°16'4 8.7
2018-Apr-04 08:00N 17°50' W 063°12'4 8.9
2018-Apr-04 07:30N 17°48' W 063°08'4 8.8
2018-Apr-04 07:00N 17°46' W 063°04'4 8.6
2018-Apr-04 06:30N 17°44' W 062°60'39 8.7
2018-Apr-04 02:03N 17°22' W 062°26'1 8.8
2018-Apr-04 01:59N 17°22' W 062°25'4 8.8
2018-Apr-04 01:30N 17°19' W 062°22'5 9.1
2018-Apr-04 00:54N 17°16' W 062°17'4 9.3
2018-Apr-04 00:30N 17°14' W 062°14'5 9.4
2018-Apr-04 00:00N 17°12' W 062°10'5 9.0
2018-Apr-03 23:30N 17°09' W 062°06'4 8.9
2018-Apr-03 23:00N 17°06' W 062°02'7 8.2
2018-Apr-03 22:12N 17°01' W 061°57'2 8.5
2018-Apr-03 22:00N 17°01' W 061°56'4 8.5
2018-Apr-03 21:30N 16°60' W 061°51'5 9.2
2018-Apr-03 21:00N 16°60' W 061°47'1 2.3
2018-Apr-03 20:28N 17°00' W 061°46'0 0.0
2018-Apr-03 19:58N 17°00' W 061°46'0 0.2
2018-Apr-03 19:29N 17°01' W 061°46'0 0.0
2018-Apr-03 18:59N 17°01' W 061°46'0 0.0
2018-Apr-03 18:29N 17°01' W 061°46'0 0.0
2018-Apr-03 17:59N 17°01' W 061°46'0 0.0
2018-Apr-03 17:29N 17°01' W 061°46'0 0.0
2018-Apr-03 16:59N 17°01' W 061°46'0 0.0
2018-Apr-03 16:29N 17°01' W 061°46'0 0.0
2018-Apr-03 15:59N 17°01' W 061°46'0 0.0
2018-Apr-03 15:29N 17°01' W 061°46'0 0.0
2018-Apr-03 14:59N 17°01' W 061°46'0 0.0
2018-Apr-03 14:29N 17°01' W 061°46'0 0.0
2018-Apr-03 13:59N 17°01' W 061°46'0 0.0
2018-Apr-03 13:29N 17°01' W 061°46'0 0.0
2018-Apr-03 12:59N 17°01' W 061°46'0 0.0
2018-Apr-03 12:29N 17°01' W 061°46'0 0.0
2018-Apr-03 11:59N 17°01' W 061°46'0 0.0
2018-Apr-03 11:29N 17°01' W 061°46'0 0.0
2018-Apr-03 10:59N 17°01' W 061°46'0 0.0
2018-Apr-03 10:29N 17°01' W 061°46'0 0.0
2018-Apr-03 09:59N 17°01' W 061°46'0 0.0
2018-Apr-03 09:29N 17°01' W 061°46'0 0.0
2018-Apr-03 08:59N 17°01' W 061°46'0 0.0
2018-Apr-03 08:29N 17°01' W 061°46'0 0.0
2018-Apr-03 07:59N 17°01' W 061°46'0 0.0
2018-Apr-03 07:29N 17°01' W 061°46'0 0.0
2018-Apr-03 06:59N 17°01' W 061°46'0 0.0
2018-Apr-03 06:29N 17°01' W 061°46'0 0.0
2018-Apr-03 05:59N 17°01' W 061°46'0 0.0
2018-Apr-03 05:29N 17°01' W 061°46'0 0.0
2018-Apr-03 04:59N 17°01' W 061°46'0 0.0
2018-Apr-03 04:29N 17°01' W 061°46'0 0.0
2018-Apr-03 03:59N 17°01' W 061°46'0 0.0
2018-Apr-03 03:29N 17°01' W 061°46'0 0.0
2018-Apr-03 02:59N 17°01' W 061°46'0 0.0
2018-Apr-03 02:29N 17°01' W 061°46'0 0.0
2018-Apr-03 01:59N 17°01' W 061°46'0 0.0
2018-Apr-03 01:29N 17°01' W 061°46'0 0.0
2018-Apr-03 00:59N 17°01' W 061°46'0 0.0
2018-Apr-03 00:29N 17°01' W 061°46'0 0.0
2018-Apr-02 23:59N 17°01' W 061°46'0 0.0
2018-Apr-02 23:29N 17°01' W 061°46'0 0.0
2018-Apr-02 22:59N 17°01' W 061°46'0 0.0
2018-Apr-02 22:29N 17°01' W 061°46'0 0.0
2018-Apr-02 21:59N 17°01' W 061°46'0 0.0
2018-Apr-02 21:29N 17°01' W 061°46'0 0.0
2018-Apr-02 20:59N 17°01' W 061°46'0 0.0
2018-Apr-02 20:29N 17°01' W 061°46'0 0.0
2018-Apr-02 19:59N 17°01' W 061°46'0 0.0
2018-Apr-02 19:23N 17°01' W 061°46'0 0.0
2018-Apr-02 18:59N 17°01' W 061°46'0 0.0
2018-Apr-02 18:29N 17°01' W 061°46'0 0.0
2018-Apr-02 17:59N 17°01' W 061°46'0 0.0
2018-Apr-02 17:29N 17°01' W 061°46'0 0.0
2018-Apr-02 16:59N 17°01' W 061°46'0 0.0
2018-Apr-02 16:29N 17°01' W 061°46'0 0.0
2018-Apr-02 15:59N 17°01' W 061°46'0 0.0
2018-Apr-02 15:29N 17°01' W 061°46'0 0.0
2018-Apr-02 14:59N 17°01' W 061°46'0 0.0
2018-Apr-02 14:29N 17°01' W 061°46'0 0.0
2018-Apr-02 13:59N 17°01' W 061°46'0 0.0
2018-Apr-02 13:29N 17°01' W 061°46'0 0.0
2018-Apr-02 12:59N 17°01' W 061°46'0 0.0
2018-Apr-02 12:29N 17°01' W 061°46'0 0.0
2018-Apr-02 11:59N 17°01' W 061°46'0 0.0
2018-Apr-02 11:29N 17°01' W 061°46'0 0.0
2018-Apr-02 10:59N 17°01' W 061°46'0 0.0
2018-Apr-02 10:29N 17°01' W 061°46'0 0.0
2018-Apr-02 09:59N 17°01' W 061°46'0 0.0
2018-Apr-02 09:29N 17°01' W 061°46'0 0.0
2018-Apr-02 08:59N 17°01' W 061°46'0 0.0
2018-Apr-02 08:29N 17°01' W 061°46'0 0.0
2018-Apr-02 07:59N 17°01' W 061°46'0 0.0
2018-Apr-02 07:29N 17°01' W 061°46'0 0.0
2018-Apr-02 06:59N 17°01' W 061°46'0 0.0
2018-Apr-02 06:29N 17°01' W 061°46'0 0.0
2018-Apr-02 05:59N 17°01' W 061°46'0 0.0
2018-Apr-02 05:29N 17°01' W 061°46'0 0.0
2018-Apr-02 04:59N 17°01' W 061°46'0 0.0
2018-Apr-02 04:29N 17°01' W 061°46'0 0.0
2018-Apr-02 03:59N 17°01' W 061°46'0 0.0
2018-Apr-02 03:29N 17°01' W 061°46'0 0.0
2018-Apr-02 02:59N 17°01' W 061°46'0 0.0
2018-Apr-02 02:29N 17°01' W 061°46'0 0.0
2018-Apr-02 01:59N 17°01' W 061°46'0 0.0
2018-Apr-02 01:29N 17°01' W 061°46'0 0.0
2018-Apr-02 00:59N 17°01' W 061°46'0 0.0
2018-Apr-02 00:29N 17°01' W 061°46'0 0.0
2018-Apr-01 23:59N 17°01' W 061°46'0 0.0
2018-Apr-01 23:29N 17°01' W 061°46'0 0.0
2018-Apr-01 22:59N 17°01' W 061°46'0 0.0
2018-Apr-01 22:29N 17°01' W 061°46'0 0.0
2018-Apr-01 21:59N 17°01' W 061°46'0 0.0
2018-Apr-01 21:29N 17°01' W 061°46'0 0.0
2018-Apr-01 20:59N 17°01' W 061°46'0 0.0
2018-Apr-01 20:29N 17°01' W 061°46'0 0.0
2018-Apr-01 19:59N 17°01' W 061°46'0 0.0
2018-Apr-01 19:29N 17°01' W 061°46'0 0.0
2018-Apr-01 18:59N 17°01' W 061°46'0 0.0
2018-Apr-01 18:29N 17°01' W 061°46'0 0.0
2018-Apr-01 17:59N 17°01' W 061°46'0 0.0
2018-Apr-01 17:29N 17°01' W 061°46'0 0.0
2018-Apr-01 16:59N 17°01' W 061°46'0 0.0
2018-Apr-01 16:29N 17°01' W 061°46'0 0.0
2018-Apr-01 15:59N 17°01' W 061°46'0 0.0
2018-Apr-01 15:29N 17°01' W 061°46'0 0.0
2018-Apr-01 14:59N 17°01' W 061°46'0 0.0
2018-Apr-01 14:29N 17°01' W 061°46'0 0.0
2018-Apr-01 13:59N 17°01' W 061°46'0 0.0
2018-Apr-01 13:29N 17°01' W 061°46'0 0.0
2018-Apr-01 12:59N 17°01' W 061°46'0 0.0
2018-Apr-01 12:29N 17°01' W 061°46'0 0.0
2018-Apr-01 11:59N 17°01' W 061°46'0 0.0
2018-Apr-01 11:29N 17°01' W 061°46'0 0.0
2018-Apr-01 10:59N 17°01' W 061°46'0 0.0
2018-Apr-01 10:29N 17°01' W 061°46'0 0.0
2018-Apr-01 09:59N 17°01' W 061°46'0 0.0
2018-Apr-01 09:29N 17°01' W 061°46'0 0.0
2018-Apr-01 08:59N 17°01' W 061°46'0 0.0
2018-Apr-01 08:29N 17°01' W 061°46'0 0.0
2018-Apr-01 07:59N 17°01' W 061°46'0 0.0
2018-Apr-01 07:29N 17°01' W 061°46'0 0.0
2018-Apr-01 06:59N 17°01' W 061°46'0 0.0
2018-Apr-01 06:29N 17°01' W 061°46'0 0.0
2018-Apr-01 05:59N 17°01' W 061°46'0 0.0
2018-Apr-01 05:29N 17°01' W 061°46'0 0.0
2018-Apr-01 04:59N 17°01' W 061°46'0 0.0
2018-Apr-01 04:29N 17°01' W 061°46'0 0.0
2018-Apr-01 03:59N 17°01' W 061°46'0 0.0
2018-Apr-01 03:29N 17°01' W 061°46'0 0.0
2018-Apr-01 02:59N 17°01' W 061°46'0 0.0
2018-Apr-01 02:29N 17°01' W 061°46'0 0.0
2018-Apr-01 01:59N 17°01' W 061°46'0 0.0
2018-Apr-01 01:29N 17°01' W 061°46'0 0.0
2018-Apr-01 00:59N 17°01' W 061°46'0 0.0
2018-Apr-01 00:29N 17°01' W 061°46'0 0.0
2018-Mar-31 23:59N 17°01' W 061°46'0 0.0
2018-Mar-31 23:29N 17°01' W 061°46'0 0.0
2018-Mar-31 22:59N 17°01' W 061°46'0 0.0
2018-Mar-31 22:29N 17°01' W 061°46'0 0.0
2018-Mar-31 21:59N 17°01' W 061°46'0 0.0
2018-Mar-31 21:29N 17°01' W 061°46'0 0.0
2018-Mar-31 20:59N 17°01' W 061°46'0 0.0
2018-Mar-31 20:26N 17°01' W 061°46'0 0.0
2018-Mar-31 19:59N 17°01' W 061°46'0 0.0
2018-Mar-31 19:29N 17°01' W 061°46'0 0.0
2018-Mar-31 18:59N 17°01' W 061°46'0 0.0
2018-Mar-31 18:26N 17°01' W 061°46'0 0.0
2018-Mar-31 17:59N 17°01' W 061°46'0 0.0
2018-Mar-31 17:29N 17°01' W 061°46'0 0.0
2018-Mar-31 16:59N 17°01' W 061°46'0 0.0
2018-Mar-31 16:29N 17°01' W 061°46'0 0.0
2018-Mar-31 15:59N 17°01' W 061°46'0 0.0
2018-Mar-31 15:29N 17°01' W 061°46'0 0.0
2018-Mar-31 14:59N 17°01' W 061°46'0 0.0
2018-Mar-31 14:29N 17°01' W 061°46'0 0.0
2018-Mar-31 13:59N 17°01' W 061°46'0 0.0
2018-Mar-31 13:29N 17°01' W 061°46'0 0.0
2018-Mar-31 12:59N 17°01' W 061°46'0 0.0
2018-Mar-31 12:29N 17°01' W 061°46'0 0.0
2018-Mar-31 11:59N 17°01' W 061°46'0 0.0
2018-Mar-31 11:29N 17°01' W 061°46'0 0.0
2018-Mar-31 10:59N 17°01' W 061°46'0 0.0
2018-Mar-31 10:29N 17°01' W 061°46'0 0.0
2018-Mar-31 09:59N 17°01' W 061°46'0 0.0
2018-Mar-31 09:29N 17°01' W 061°46'0 0.0
2018-Mar-31 08:59N 17°01' W 061°46'0 0.0
2018-Mar-31 08:29N 17°01' W 061°46'0 0.0
2018-Mar-31 07:59N 17°01' W 061°46'0 0.0
2018-Mar-31 07:29N 17°01' W 061°46'0 0.0
2018-Mar-31 06:59N 17°01' W 061°46'0 0.0
2018-Mar-31 06:29N 17°01' W 061°46'0 0.0
2018-Mar-31 05:59N 17°01' W 061°46'0 0.0
2018-Mar-31 05:29N 17°01' W 061°46'0 0.0
2018-Mar-31 04:59N 17°01' W 061°46'0 0.0
2018-Mar-31 04:29N 17°01' W 061°46'0 0.0
2018-Mar-31 03:59N 17°01' W 061°46'0 0.0
2018-Mar-31 03:29N 17°01' W 061°46'0 0.0
2018-Mar-31 02:59N 17°01' W 061°46'0 0.0
2018-Mar-31 02:29N 17°01' W 061°46'0 0.0
2018-Mar-31 01:59N 17°01' W 061°46'0 0.0
2018-Mar-31 01:29N 17°01' W 061°46'0 0.0
2018-Mar-31 00:59N 17°01' W 061°46'0 0.0
2018-Mar-31 00:29N 17°01' W 061°46'0 0.0
2018-Mar-30 23:59N 17°01' W 061°46'0 0.0
2018-Mar-30 23:29N 17°01' W 061°46'0 0.0
2018-Mar-30 22:59N 17°01' W 061°46'0 0.0
2018-Mar-30 22:29N 17°01' W 061°46'0 0.0
2018-Mar-30 21:59N 17°01' W 061°46'0 0.0
2018-Mar-30 21:29N 17°01' W 061°46'0 0.0
2018-Mar-30 20:59N 17°01' W 061°46'0 0.0
2018-Mar-30 20:29N 17°01' W 061°46'0 0.0
2018-Mar-30 19:59N 17°01' W 061°46'0 0.0
2018-Mar-30 19:29N 17°01' W 061°46'0 0.0
2018-Mar-30 18:59N 17°01' W 061°46'0 0.0
2018-Mar-30 18:29N 17°01' W 061°46'0 0.0
2018-Mar-30 17:59N 17°01' W 061°46'0 0.0
2018-Mar-30 17:29N 17°01' W 061°46'0 0.0
2018-Mar-30 16:53N 17°01' W 061°46'0 0.0
2018-Mar-30 16:29N 17°01' W 061°46'0 0.0
2018-Mar-30 15:59N 17°01' W 061°46'0 0.0
2018-Mar-30 15:29N 17°01' W 061°46'0 0.0
2018-Mar-30 14:59N 17°01' W 061°46'0 0.0
2018-Mar-30 14:29N 17°01' W 061°46'0 0.0
2018-Mar-30 13:59N 17°01' W 061°46'0 0.0
2018-Mar-30 13:29N 17°01' W 061°46'0 0.0
2018-Mar-30 12:59N 17°01' W 061°46'0 0.0
2018-Mar-30 12:29N 17°01' W 061°46'0 0.0
2018-Mar-30 11:59N 17°01' W 061°46'0 0.0
2018-Mar-30 11:29N 17°01' W 061°46'0 0.0
2018-Mar-30 10:59N 17°01' W 061°46'0 0.0
2018-Mar-30 10:29N 17°01' W 061°46'0 0.0
2018-Mar-30 09:59N 17°01' W 061°46'0 0.0
2018-Mar-30 09:29N 17°01' W 061°46'0 0.0
2018-Mar-30 08:59N 17°01' W 061°46'0 0.0
2018-Mar-30 08:29N 17°01' W 061°46'0 0.0
2018-Mar-30 07:59N 17°01' W 061°46'0 0.0
2018-Mar-30 07:29N 17°01' W 061°46'0 0.0
2018-Mar-30 06:59N 17°01' W 061°46'0 0.0
2018-Mar-30 06:29N 17°01' W 061°46'0 0.0
2018-Mar-30 05:59N 17°01' W 061°46'0 0.0
2018-Mar-30 05:29N 17°01' W 061°46'0 0.0
2018-Mar-30 04:59N 17°01' W 061°46'0 0.0
2018-Mar-30 04:29N 17°01' W 061°46'0 0.0
2018-Mar-30 03:59N 17°01' W 061°46'0 0.0
2018-Mar-30 03:29N 17°01' W 061°46'0 0.0
2018-Mar-30 02:59N 17°01' W 061°46'0 0.0
2018-Mar-30 02:29N 17°01' W 061°46'0 0.0
2018-Mar-30 01:59N 17°01' W 061°46'0 0.0
2018-Mar-30 01:29N 17°01' W 061°46'0 0.0
2018-Mar-30 00:59N 17°01' W 061°46'0 0.0
2018-Mar-30 00:29N 17°01' W 061°46'0 0.0
2018-Mar-29 23:59N 17°01' W 061°46'0 0.0
2018-Mar-29 23:29N 17°01' W 061°46'0 0.0
2018-Mar-29 22:59N 17°01' W 061°46'0 0.0
2018-Mar-29 22:29N 17°01' W 061°46'0 0.0
2018-Mar-29 21:59N 17°01' W 061°46'0 0.0
2018-Mar-29 21:29N 17°01' W 061°46'0 0.0
2018-Mar-29 20:59N 17°01' W 061°46'0 0.0
2018-Mar-29 20:26N 17°01' W 061°46'0 0.0
2018-Mar-29 19:59N 17°01' W 061°46'0 0.0
2018-Mar-29 19:29N 17°01' W 061°46'0 0.0
2018-Mar-29 18:59N 17°01' W 061°46'0 0.0
2018-Mar-29 18:29N 17°01' W 061°46'0 0.0
2018-Mar-29 17:59N 17°01' W 061°46'0 0.0
2018-Mar-29 17:29N 17°01' W 061°46'0 0.0
2018-Mar-29 16:59N 17°01' W 061°46'0 0.0
2018-Mar-29 16:23N 17°01' W 061°46'0 0.0
2018-Mar-29 15:59N 17°01' W 061°46'0 0.0
2018-Mar-29 15:29N 17°01' W 061°46'0 0.0
2018-Mar-29 14:59N 17°01' W 061°46'0 0.0
2018-Mar-29 14:29N 17°01' W 061°46'0 0.0
2018-Mar-29 13:59N 17°01' W 061°46'0 0.0
2018-Mar-29 13:29N 17°01' W 061°46'0 0.0
2018-Mar-29 12:59N 17°01' W 061°46'0 0.0
2018-Mar-29 12:29N 17°01' W 061°46'0 0.0
2018-Mar-29 11:59N 17°01' W 061°46'0 0.0
2018-Mar-29 11:29N 17°01' W 061°46'0 0.0
2018-Mar-29 10:59N 17°01' W 061°46'0 0.0
2018-Mar-29 10:29N 17°01' W 061°46'0 0.0
2018-Mar-29 09:59N 17°01' W 061°46'0 0.0
2018-Mar-29 09:29N 17°01' W 061°46'0 0.0
2018-Mar-29 08:59N 17°01' W 061°46'0 0.0
2018-Mar-29 08:29N 17°01' W 061°46'0 0.0
2018-Mar-29 07:59N 17°01' W 061°46'0 0.0
2018-Mar-29 07:29N 17°01' W 061°46'0 0.0
2018-Mar-29 06:59N 17°01' W 061°46'0 0.0
2018-Mar-29 06:29N 17°01' W 061°46'0 0.0
2018-Mar-29 05:59N 17°01' W 061°46'0 0.0
2018-Mar-29 05:29N 17°01' W 061°46'0 0.0
2018-Mar-29 04:59N 17°01' W 061°46'0 0.0
2018-Mar-29 04:29N 17°01' W 061°46'0 0.0
2018-Mar-29 03:59N 17°01' W 061°46'0 0.0
2018-Mar-29 03:29N 17°01' W 061°46'0 0.0
2018-Mar-29 02:59N 17°01' W 061°46'0 0.0
2018-Mar-29 02:29N 17°01' W 061°46'0 0.0
2018-Mar-29 01:59N 17°01' W 061°46'0 0.0
2018-Mar-29 01:29N 17°01' W 061°46'0 0.0
2018-Mar-29 00:59N 17°01' W 061°46'0 0.0
2018-Mar-29 00:29N 17°01' W 061°46'0 0.0
2018-Mar-28 23:59N 17°01' W 061°46'0 0.0
2018-Mar-28 23:29N 17°01' W 061°46'0 0.0
2018-Mar-28 22:59N 17°01' W 061°46'0 0.0
2018-Mar-28 22:29N 17°01' W 061°46'0 0.0
2018-Mar-28 21:59N 17°01' W 061°46'0 0.0
2018-Mar-28 21:29N 17°01' W 061°46'0 0.0
2018-Mar-28 20:59N 17°01' W 061°46'0 0.0
2018-Mar-28 20:26N 17°01' W 061°46'0 0.0
2018-Mar-28 19:59N 17°01' W 061°46'0 0.0
2018-Mar-28 19:29N 17°01' W 061°46'0 0.0
2018-Mar-28 18:59N 17°01' W 061°46'0 0.0
2018-Mar-28 18:29N 17°01' W 061°46'0 0.0
2018-Mar-28 17:59N 17°01' W 061°46'0 0.0
2018-Mar-28 17:29N 17°01' W 061°46'0 0.0
2018-Mar-28 16:59N 17°01' W 061°46'0 0.0
2018-Mar-28 16:29N 17°01' W 061°46'0 0.0
2018-Mar-28 15:59N 17°01' W 061°46'0 0.0
2018-Mar-28 15:29N 17°01' W 061°46'0 0.0
2018-Mar-28 14:59N 17°01' W 061°46'0 0.0
2018-Mar-28 14:29N 17°01' W 061°46'0 0.0
2018-Mar-28 13:59N 17°01' W 061°46'0 0.0
2018-Mar-28 13:29N 17°01' W 061°46'0 0.0
2018-Mar-28 12:59N 17°01' W 061°46'0 0.0
2018-Mar-28 12:29N 17°01' W 061°46'0 0.0
2018-Mar-28 11:59N 17°01' W 061°46'0 0.0
2018-Mar-28 11:29N 17°01' W 061°46'0 0.0
2018-Mar-28 10:59N 17°01' W 061°46'0 0.0
2018-Mar-28 10:29N 17°01' W 061°46'0 0.0
2018-Mar-28 09:59N 17°01' W 061°46'0 0.0
2018-Mar-28 09:29N 17°01' W 061°46'0 0.0
2018-Mar-28 08:59N 17°01' W 061°46'0 0.0
2018-Mar-28 08:29N 17°01' W 061°46'0 0.0
2018-Mar-28 07:59N 17°01' W 061°46'0 0.0
2018-Mar-28 07:29N 17°01' W 061°46'0 0.0
2018-Mar-28 06:59N 17°01' W 061°46'0 0.0
2018-Mar-28 06:29N 17°01' W 061°46'0 0.0
2018-Mar-28 05:59N 17°01' W 061°46'0 0.0
2018-Mar-28 05:29N 17°01' W 061°46'0 0.0
2018-Mar-28 04:59N 17°01' W 061°46'0 0.0
2018-Mar-28 04:29N 17°01' W 061°46'0 0.0
2018-Mar-28 03:59N 17°01' W 061°46'0 0.0
2018-Mar-28 03:29N 17°01' W 061°46'0 0.0
2018-Mar-28 02:59N 17°01' W 061°46'0 0.0
2018-Mar-28 02:29N 17°01' W 061°46'0 0.0
2018-Mar-28 01:59N 17°01' W 061°46'0 0.0
2018-Mar-28 01:29N 17°01' W 061°46'0 0.0
2018-Mar-28 00:59N 17°01' W 061°46'0 0.0
2018-Mar-28 00:29N 17°01' W 061°46'0 0.0
2018-Mar-27 23:59N 17°01' W 061°46'0 0.0
2018-Mar-27 23:29N 17°01' W 061°46'0 0.0
2018-Mar-27 22:59N 17°01' W 061°46'0 0.0
2018-Mar-27 22:29N 17°01' W 061°46'0 0.0
2018-Mar-27 21:59N 17°01' W 061°46'0 0.0
2018-Mar-27 21:29N 17°01' W 061°46'0 0.0
2018-Mar-27 20:59N 17°01' W 061°46'0 0.0
2018-Mar-27 20:29N 17°01' W 061°46'0 0.0
2018-Mar-27 19:59N 17°01' W 061°46'0 0.0
2018-Mar-27 19:29N 17°01' W 061°46'0 0.0
2018-Mar-27 18:59N 17°01' W 061°46'0 0.0
2018-Mar-27 18:29N 17°01' W 061°46'0 0.0
2018-Mar-27 17:59N 17°01' W 061°46'0 0.0
2018-Mar-27 17:29N 17°01' W 061°46'0 0.0
2018-Mar-27 16:59N 17°01' W 061°46'0 0.0
2018-Mar-27 16:29N 17°01' W 061°46'0 0.0
2018-Mar-27 15:59N 17°01' W 061°46'0 0.0
2018-Mar-27 15:29N 17°01' W 061°46'0 0.0
2018-Mar-27 14:56N 17°01' W 061°46'0 0.0
2018-Mar-27 14:29N 17°01' W 061°46'0 0.0
2018-Mar-27 13:59N 17°01' W 061°46'0 0.0
2018-Mar-27 13:29N 17°01' W 061°46'0 0.0
2018-Mar-27 12:59N 17°01' W 061°46'0 0.0
2018-Mar-27 12:29N 17°01' W 061°46'0 0.0
2018-Mar-27 11:59N 17°01' W 061°46'0 0.0
2018-Mar-27 11:29N 17°01' W 061°46'0 0.0
2018-Mar-27 10:59N 17°01' W 061°46'0 0.0
2018-Mar-27 10:29N 17°01' W 061°46'0 0.0
2018-Mar-27 09:53N 17°01' W 061°46'0 0.0
2018-Mar-27 09:29N 17°01' W 061°46'0 0.0
2018-Mar-27 08:59N 17°01' W 061°46'0 0.0
2018-Mar-27 08:29N 17°01' W 061°46'0 0.0
2018-Mar-27 07:59N 17°01' W 061°46'0 0.0
2018-Mar-27 07:29N 17°01' W 061°46'0 0.0
2018-Mar-27 06:59N 17°01' W 061°46'0 0.0
2018-Mar-27 06:29N 17°01' W 061°46'0 0.0
2018-Mar-27 05:59N 17°01' W 061°46'0 0.0
2018-Mar-27 05:29N 17°01' W 061°46'0 0.0
2018-Mar-27 04:59N 17°01' W 061°46'0 0.0
2018-Mar-27 04:29N 17°01' W 061°46'0 0.0
2018-Mar-27 03:59N 17°01' W 061°46'0 0.0
2018-Mar-27 03:29N 17°01' W 061°46'0 0.0
2018-Mar-27 02:59N 17°01' W 061°46'0 0.0
2018-Mar-27 02:29N 17°01' W 061°46'0 0.0
2018-Mar-27 01:59N 17°01' W 061°46'0 0.0
2018-Mar-27 01:29N 17°01' W 061°46'0 0.0
2018-Mar-27 00:59N 17°01' W 061°46'0 0.0
2018-Mar-27 00:29N 17°01' W 061°46'0 0.0
2018-Mar-26 23:59N 17°01' W 061°46'0 0.0
2018-Mar-26 23:29N 17°01' W 061°46'0 0.0
2018-Mar-26 22:59N 17°01' W 061°46'0 0.0
2018-Mar-26 22:29N 17°01' W 061°46'0 0.0
2018-Mar-26 21:59N 17°01' W 061°46'0 0.0
2018-Mar-26 21:29N 17°01' W 061°46'0 0.0
2018-Mar-26 20:59N 17°01' W 061°46'0 0.0
2018-Mar-26 20:29N 17°01' W 061°46'0 0.0
2018-Mar-26 19:59N 17°01' W 061°46'0 0.0
2018-Mar-26 19:29N 17°01' W 061°46'0 0.0
2018-Mar-26 18:59N 17°01' W 061°46'0 0.0
2018-Mar-26 18:29N 17°01' W 061°46'0 0.0
2018-Mar-26 17:59N 17°01' W 061°46'0 0.0
2018-Mar-26 17:29N 17°01' W 061°46'0 0.0
2018-Mar-26 16:59N 17°01' W 061°46'0 0.0
2018-Mar-26 16:29N 17°01' W 061°46'0 0.0
2018-Mar-26 15:59N 17°01' W 061°46'0 0.0
2018-Mar-26 15:29N 17°01' W 061°46'0 0.0
2018-Mar-26 14:59N 17°01' W 061°46'0 0.0
2018-Mar-26 14:29N 17°01' W 061°46'0 0.0
2018-Mar-26 13:59N 17°01' W 061°46'0 0.0
2018-Mar-26 13:29N 17°01' W 061°46'0 0.0
2018-Mar-26 12:59N 17°01' W 061°46'0 0.0
2018-Mar-26 12:29N 17°01' W 061°46'0 0.0
2018-Mar-26 11:59N 17°01' W 061°46'0 0.0
2018-Mar-26 11:29N 17°01' W 061°46'0 0.0
2018-Mar-26 10:59N 17°01' W 061°46'0 0.0
2018-Mar-26 10:29N 17°01' W 061°46'0 0.0
2018-Mar-26 09:59N 17°01' W 061°46'0 0.0
2018-Mar-26 09:29N 17°01' W 061°46'0 0.0
2018-Mar-26 08:59N 17°01' W 061°46'0 0.0
2018-Mar-26 08:29N 17°01' W 061°46'0 0.0
2018-Mar-26 07:59N 17°01' W 061°46'0 0.0
2018-Mar-26 07:29N 17°01' W 061°46'0 0.0
2018-Mar-26 06:59N 17°01' W 061°46'0 0.0
2018-Mar-26 06:29N 17°01' W 061°46'0 0.0
2018-Mar-26 05:59N 17°01' W 061°46'0 0.0
2018-Mar-26 05:29N 17°01' W 061°46'0 0.0
2018-Mar-26 04:59N 17°01' W 061°46'0 0.0
2018-Mar-26 04:29N 17°01' W 061°46'0 0.0
2018-Mar-26 03:59N 17°01' W 061°46'0 0.0
2018-Mar-26 03:29N 17°01' W 061°46'0 0.0
2018-Mar-26 02:59N 17°01' W 061°46'0 0.0
2018-Mar-26 02:29N 17°01' W 061°46'0 0.0
2018-Mar-26 01:59N 17°01' W 061°46'0 0.0
2018-Mar-26 01:29N 17°01' W 061°46'0 0.0
2018-Mar-26 00:59N 17°01' W 061°46'0 0.0
2018-Mar-26 00:29N 17°01' W 061°46'0 0.0
2018-Mar-25 23:59N 17°01' W 061°46'0 0.0
2018-Mar-25 23:29N 17°01' W 061°46'0 0.0
2018-Mar-25 22:56N 17°01' W 061°46'0 0.0
2018-Mar-25 22:29N 17°01' W 061°46'0 0.0
2018-Mar-25 21:59N 17°01' W 061°46'0 0.0
2018-Mar-25 21:29N 17°01' W 061°46'0 0.0
2018-Mar-25 20:59N 17°01' W 061°46'0 0.0
2018-Mar-25 20:29N 17°01' W 061°46'0 0.0
2018-Mar-25 19:59N 17°01' W 061°46'0 0.0
2018-Mar-25 19:29N 17°01' W 061°46'0 0.0
2018-Mar-25 18:56N 17°01' W 061°46'0 0.0
2018-Mar-25 18:29N 17°01' W 061°46'0 0.0
2018-Mar-25 17:59N 17°01' W 061°46'0 0.0
2018-Mar-25 17:29N 17°01' W 061°46'0 0.0
2018-Mar-25 16:59N 17°01' W 061°46'0 0.0
2018-Mar-25 16:29N 17°01' W 061°46'0 0.0
2018-Mar-25 15:59N 17°01' W 061°46'0 0.0
2018-Mar-25 15:29N 17°01' W 061°46'0 0.0
2018-Mar-25 14:59N 17°01' W 061°46'0 0.0
2018-Mar-25 14:29N 17°01' W 061°46'0 0.0
2018-Mar-25 13:59N 17°01' W 061°46'0 0.0
2018-Mar-25 13:29N 17°01' W 061°46'0 0.0
2018-Mar-25 12:59N 17°01' W 061°46'0 0.0
2018-Mar-25 12:29N 17°01' W 061°46'0 0.0
2018-Mar-25 11:59N 17°01' W 061°46'0 0.0
2018-Mar-25 11:29N 17°01' W 061°46'0 0.0
2018-Mar-25 10:59N 17°01' W 061°46'0 0.0
2018-Mar-25 10:29N 17°01' W 061°46'  
Track history (hours):
 
Tides and Currents Weather Stations Pressure Air Temp Water Temp Dewpoint Dewpoint Depression Visibility Wind Speed Wind Dir Waves Ship Positions

Padma

Last reported at 2018-Apr-04 10:23 UTC. Time now 2018-Apr-23 19:31 UTC.
Position N 17°59' W 063°32'.
Warning: this ship's position is 19 days out of date.

Length 25 m.

Type: Sailing vessel. MMSI: 235076308.

Date/timePositionNaut miles runAvg speedWind from/ knotsBaromVisibWave heightAir tempDewpointWater temp
2018-Apr-04 10:23N 17°59' W 063°32'4 8.9
2018-Apr-04 09:54N 17°57' W 063°28'4 8.8
2018-Apr-04 09:25N 17°55' W 063°24'4 8.8
2018-Apr-04 09:00N 17°54' W 063°20'4 8.8
2018-Apr-04 08:30N 17°52' W 063°16'4 8.7
2018-Apr-04 08:00N 17°50' W 063°12'4 8.9
2018-Apr-04 07:30N 17°48' W 063°08'4 8.8
2018-Apr-04 07:00N 17°46' W 063°04'4 8.6
2018-Apr-04 06:30N 17°44' W 062°60'39 8.7
2018-Apr-04 02:03N 17°22' W 062°26'1 8.8
2018-Apr-04 01:59N 17°22' W 062°25'4 8.8
2018-Apr-04 01:30N 17°19' W 062°22'5 9.1
2018-Apr-04 00:54N 17°16' W 062°17'4 9.3
2018-Apr-04 00:30N 17°14' W 062°14'5 9.4
2018-Apr-04 00:00N 17°12' W 062°10'5 9.0
2018-Apr-03 23:30N 17°09' W 062°06'4 8.9
2018-Apr-03 23:00N 17°06' W 062°02'7 8.2
2018-Apr-03 22:12N 17°01' W 061°57'2 8.5
2018-Apr-03 22:00N 17°01' W 061°56'4 8.5
2018-Apr-03 21:30N 16°60' W 061°51'5 9.2
2018-Apr-03 21:00N 16°60' W 061°47'1 2.3
2018-Apr-03 20:28N 17°00' W 061°46'0 0.0
2018-Apr-03 19:58N 17°00' W 061°46'0 0.2
2018-Apr-03 19:29N 17°01' W 061°46'0 0.0
2018-Apr-03 18:59N 17°01' W 061°46'0 0.0
2018-Apr-03 18:29N 17°01' W 061°46'0 0.0
2018-Apr-03 17:59N 17°01' W 061°46'0 0.0
2018-Apr-03 17:29N 17°01' W 061°46'0 0.0
2018-Apr-03 16:59N 17°01' W 061°46'0 0.0
2018-Apr-03 16:29N 17°01' W 061°46'0 0.0
2018-Apr-03 15:59N 17°01' W 061°46'0 0.0
2018-Apr-03 15:29N 17°01' W 061°46'0 0.0
2018-Apr-03 14:59N 17°01' W 061°46'0 0.0
2018-Apr-03 14:29N 17°01' W 061°46'0 0.0
2018-Apr-03 13:59N 17°01' W 061°46'0 0.0
2018-Apr-03 13:29N 17°01' W 061°46'0 0.0
2018-Apr-03 12:59N 17°01' W 061°46'0 0.0
2018-Apr-03 12:29N 17°01' W 061°46'0 0.0
2018-Apr-03 11:59N 17°01' W 061°46'0 0.0
2018-Apr-03 11:29N 17°01' W 061°46'0 0.0
2018-Apr-03 10:59N 17°01' W 061°46'0 0.0
2018-Apr-03 10:29N 17°01' W 061°46'0 0.0
2018-Apr-03 09:59N 17°01' W 061°46'0 0.0
2018-Apr-03 09:29N 17°01' W 061°46'0 0.0
2018-Apr-03 08:59N 17°01' W 061°46'0 0.0
2018-Apr-03 08:29N 17°01' W 061°46'0 0.0
2018-Apr-03 07:59N 17°01' W 061°46'0 0.0
2018-Apr-03 07:29N 17°01' W 061°46'0 0.0
2018-Apr-03 06:59N 17°01' W 061°46'0 0.0
2018-Apr-03 06:29N 17°01' W 061°46'0 0.0
2018-Apr-03 05:59N 17°01' W 061°46'0 0.0
2018-Apr-03 05:29N 17°01' W 061°46'0 0.0
2018-Apr-03 04:59N 17°01' W 061°46'0 0.0
2018-Apr-03 04:29N 17°01' W 061°46'0 0.0
2018-Apr-03 03:59N 17°01' W 061°46'0 0.0
2018-Apr-03 03:29N 17°01' W 061°46'0 0.0
2018-Apr-03 02:59N 17°01' W 061°46'0 0.0
2018-Apr-03 02:29N 17°01' W 061°46'0 0.0
2018-Apr-03 01:59N 17°01' W 061°46'0 0.0
2018-Apr-03 01:29N 17°01' W 061°46'0 0.0
2018-Apr-03 00:59N 17°01' W 061°46'0 0.0
2018-Apr-03 00:29N 17°01' W 061°46'0 0.0
2018-Apr-02 23:59N 17°01' W 061°46'0 0.0
2018-Apr-02 23:29N 17°01' W 061°46'0 0.0
2018-Apr-02 22:59N 17°01' W 061°46'0 0.0
2018-Apr-02 22:29N 17°01' W 061°46'0 0.0
2018-Apr-02 21:59N 17°01' W 061°46'0 0.0
2018-Apr-02 21:29N 17°01' W 061°46'0 0.0
2018-Apr-02 20:59N 17°01' W 061°46'0 0.0
2018-Apr-02 20:29N 17°01' W 061°46'0 0.0
2018-Apr-02 19:59N 17°01' W 061°46'0 0.0
2018-Apr-02 19:23N 17°01' W 061°46'0 0.0
2018-Apr-02 18:59N 17°01' W 061°46'0 0.0
2018-Apr-02 18:29N 17°01' W 061°46'0 0.0
2018-Apr-02 17:59N 17°01' W 061°46'0 0.0
2018-Apr-02 17:29N 17°01' W 061°46'0 0.0
2018-Apr-02 16:59N 17°01' W 061°46'0 0.0
2018-Apr-02 16:29N 17°01' W 061°46'0 0.0
2018-Apr-02 15:59N 17°01' W 061°46'0 0.0
2018-Apr-02 15:29N 17°01' W 061°46'0 0.0
2018-Apr-02 14:59N 17°01' W 061°46'0 0.0
2018-Apr-02 14:29N 17°01' W 061°46'0 0.0
2018-Apr-02 13:59N 17°01' W 061°46'0 0.0
2018-Apr-02 13:29N 17°01' W 061°46'0 0.0
2018-Apr-02 12:59N 17°01' W 061°46'0 0.0
2018-Apr-02 12:29N 17°01' W 061°46'0 0.0
2018-Apr-02 11:59N 17°01' W 061°46'0 0.0
2018-Apr-02 11:29N 17°01' W 061°46'0 0.0
2018-Apr-02 10:59N 17°01' W 061°46'0 0.0
2018-Apr-02 10:29N 17°01' W 061°46'0 0.0
2018-Apr-02 09:59N 17°01' W 061°46'0 0.0
2018-Apr-02 09:29N 17°01' W 061°46'0 0.0
2018-Apr-02 08:59N 17°01' W 061°46'0 0.0
2018-Apr-02 08:29N 17°01' W 061°46'0 0.0
2018-Apr-02 07:59N 17°01' W 061°46'0 0.0
2018-Apr-02 07:29N 17°01' W 061°46'0 0.0
2018-Apr-02 06:59N 17°01' W 061°46'0 0.0
2018-Apr-02 06:29N 17°01' W 061°46'0 0.0
2018-Apr-02 05:59N 17°01' W 061°46'0 0.0
2018-Apr-02 05:29N 17°01' W 061°46'0 0.0
2018-Apr-02 04:59N 17°01' W 061°46'0 0.0
2018-Apr-02 04:29N 17°01' W 061°46'0 0.0
2018-Apr-02 03:59N 17°01' W 061°46'0 0.0
2018-Apr-02 03:29N 17°01' W 061°46'0 0.0
2018-Apr-02 02:59N 17°01' W 061°46'0 0.0
2018-Apr-02 02:29N 17°01' W 061°46'0 0.0
2018-Apr-02 01:59N 17°01' W 061°46'0 0.0
2018-Apr-02 01:29N 17°01' W 061°46'0 0.0
2018-Apr-02 00:59N 17°01' W 061°46'0 0.0
2018-Apr-02 00:29N 17°01' W 061°46'0 0.0
2018-Apr-01 23:59N 17°01' W 061°46'0 0.0
2018-Apr-01 23:29N 17°01' W 061°46'0 0.0
2018-Apr-01 22:59N 17°01' W 061°46'0 0.0
2018-Apr-01 22:29N 17°01' W 061°46'0 0.0
2018-Apr-01 21:59N 17°01' W 061°46'0 0.0
2018-Apr-01 21:29N 17°01' W 061°46'0 0.0
2018-Apr-01 20:59N 17°01' W 061°46'0 0.0
2018-Apr-01 20:29N 17°01' W 061°46'0 0.0
2018-Apr-01 19:59N 17°01' W 061°46'0 0.0
2018-Apr-01 19:29N 17°01' W 061°46'0 0.0
2018-Apr-01 18:59N 17°01' W 061°46'0 0.0
2018-Apr-01 18:29N 17°01' W 061°46'0 0.0
2018-Apr-01 17:59N 17°01' W 061°46'0 0.0
2018-Apr-01 17:29N 17°01' W 061°46'0 0.0
2018-Apr-01 16:59N 17°01' W 061°46'0 0.0
2018-Apr-01 16:29N 17°01' W 061°46'0 0.0
2018-Apr-01 15:59N 17°01' W 061°46'0 0.0
2018-Apr-01 15:29N 17°01' W 061°46'0 0.0
2018-Apr-01 14:59N 17°01' W 061°46'0 0.0
2018-Apr-01 14:29N 17°01' W 061°46'0 0.0
2018-Apr-01 13:59N 17°01' W 061°46'0 0.0
2018-Apr-01 13:29N 17°01' W 061°46'0 0.0
2018-Apr-01 12:59N 17°01' W 061°46'0 0.0
2018-Apr-01 12:29N 17°01' W 061°46'0 0.0
2018-Apr-01 11:59N 17°01' W 061°46'0 0.0
2018-Apr-01 11:29N 17°01' W 061°46'0 0.0
2018-Apr-01 10:59N 17°01' W 061°46'0 0.0
2018-Apr-01 10:29N 17°01' W 061°46'0 0.0
2018-Apr-01 09:59N 17°01' W 061°46'0 0.0
2018-Apr-01 09:29N 17°01' W 061°46'0 0.0
2018-Apr-01 08:59N 17°01' W 061°46'0 0.0
2018-Apr-01 08:29N 17°01' W 061°46'0 0.0
2018-Apr-01 07:59N 17°01' W 061°46'0 0.0
2018-Apr-01 07:29N 17°01' W 061°46'0 0.0
2018-Apr-01 06:59N 17°01' W 061°46'0 0.0
2018-Apr-01 06:29N 17°01' W 061°46'0 0.0
2018-Apr-01 05:59N 17°01' W 061°46'0 0.0
2018-Apr-01 05:29N 17°01' W 061°46'0 0.0
2018-Apr-01 04:59N 17°01' W 061°46'0 0.0
2018-Apr-01 04:29N 17°01' W 061°46'0 0.0
2018-Apr-01 03:59N 17°01' W 061°46'0 0.0
2018-Apr-01 03:29N 17°01' W 061°46'0 0.0
2018-Apr-01 02:59N 17°01' W 061°46'0 0.0
2018-Apr-01 02:29N 17°01' W 061°46'0 0.0
2018-Apr-01 01:59N 17°01' W 061°46'0 0.0
2018-Apr-01 01:29N 17°01' W 061°46'0 0.0
2018-Apr-01 00:59N 17°01' W 061°46'0 0.0
2018-Apr-01 00:29N 17°01' W 061°46'0 0.0
2018-Mar-31 23:59N 17°01' W 061°46'0 0.0
2018-Mar-31 23:29N 17°01' W 061°46'0 0.0
2018-Mar-31 22:59N 17°01' W 061°46'0 0.0
2018-Mar-31 22:29N 17°01' W 061°46'0 0.0
2018-Mar-31 21:59N 17°01' W 061°46'0 0.0
2018-Mar-31 21:29N 17°01' W 061°46'0 0.0
2018-Mar-31 20:59N 17°01' W 061°46'0 0.0
2018-Mar-31 20:26N 17°01' W 061°46'0 0.0
2018-Mar-31 19:59N 17°01' W 061°46'0 0.0
2018-Mar-31 19:29N 17°01' W 061°46'0 0.0
2018-Mar-31 18:59N 17°01' W 061°46'0 0.0
2018-Mar-31 18:26N 17°01' W 061°46'0 0.0
2018-Mar-31 17:59N 17°01' W 061°46'0 0.0
2018-Mar-31 17:29N 17°01' W 061°46'0 0.0
2018-Mar-31 16:59N 17°01' W 061°46'0 0.0
2018-Mar-31 16:29N 17°01' W 061°46'0 0.0
2018-Mar-31 15:59N 17°01' W 061°46'0 0.0
2018-Mar-31 15:29N 17°01' W 061°46'0 0.0
2018-Mar-31 14:59N 17°01' W 061°46'0 0.0
2018-Mar-31 14:29N 17°01' W 061°46'0 0.0
2018-Mar-31 13:59N 17°01' W 061°46'0 0.0
2018-Mar-31 13:29N 17°01' W 061°46'0 0.0
2018-Mar-31 12:59N 17°01' W 061°46'0 0.0
2018-Mar-31 12:29N 17°01' W 061°46'0 0.0
2018-Mar-31 11:59N 17°01' W 061°46'0 0.0
2018-Mar-31 11:29N 17°01' W 061°46'0 0.0
2018-Mar-31 10:59N 17°01' W 061°46'0 0.0
2018-Mar-31 10:29N 17°01' W 061°46'0 0.0
2018-Mar-31 09:59N 17°01' W 061°46'0 0.0
2018-Mar-31 09:29N 17°01' W 061°46'0 0.0
2018-Mar-31 08:59N 17°01' W 061°46'0 0.0
2018-Mar-31 08:29N 17°01' W 061°46'0 0.0
2018-Mar-31 07:59N 17°01' W 061°46'0 0.0
2018-Mar-31 07:29N 17°01' W 061°46'0 0.0
2018-Mar-31 06:59N 17°01' W 061°46'0 0.0
2018-Mar-31 06:29N 17°01' W 061°46'0 0.0
2018-Mar-31 05:59N 17°01' W 061°46'0 0.0
2018-Mar-31 05:29N 17°01' W 061°46'0 0.0
2018-Mar-31 04:59N 17°01' W 061°46'0 0.0
2018-Mar-31 04:29N 17°01' W 061°46'0 0.0
2018-Mar-31 03:59N 17°01' W 061°46'0 0.0
2018-Mar-31 03:29N 17°01' W 061°46'0 0.0
2018-Mar-31 02:59N 17°01' W 061°46'0 0.0
2018-Mar-31 02:29N 17°01' W 061°46'0 0.0
2018-Mar-31 01:59N 17°01' W 061°46'0 0.0
2018-Mar-31 01:29N 17°01' W 061°46'0 0.0
2018-Mar-31 00:59N 17°01' W 061°46'0 0.0
2018-Mar-31 00:29N 17°01' W 061°46'0 0.0
2018-Mar-30 23:59N 17°01' W 061°46'0 0.0
2018-Mar-30 23:29N 17°01' W 061°46'0 0.0
2018-Mar-30 22:59N 17°01' W 061°46'0 0.0
2018-Mar-30 22:29N 17°01' W 061°46'0 0.0
2018-Mar-30 21:59N 17°01' W 061°46'0 0.0
2018-Mar-30 21:29N 17°01' W 061°46'0 0.0
2018-Mar-30 20:59N 17°01' W 061°46'0 0.0
2018-Mar-30 20:29N 17°01' W 061°46'0 0.0
2018-Mar-30 19:59N 17°01' W 061°46'0 0.0
2018-Mar-30 19:29N 17°01' W 061°46'0 0.0
2018-Mar-30 18:59N 17°01' W 061°46'0 0.0
2018-Mar-30 18:29N 17°01' W 061°46'0 0.0
2018-Mar-30 17:59N 17°01' W 061°46'0 0.0
2018-Mar-30 17:29N 17°01' W 061°46'0 0.0
2018-Mar-30 16:53N 17°01' W 061°46'0 0.0
2018-Mar-30 16:29N 17°01' W 061°46'0 0.0
2018-Mar-30 15:59N 17°01' W 061°46'0 0.0
2018-Mar-30 15:29N 17°01' W 061°46'0 0.0
2018-Mar-30 14:59N 17°01' W 061°46'0 0.0
2018-Mar-30 14:29N 17°01' W 061°46'0 0.0
2018-Mar-30 13:59N 17°01' W 061°46'0 0.0
2018-Mar-30 13:29N 17°01' W 061°46'0 0.0
2018-Mar-30 12:59N 17°01' W 061°46'0 0.0
2018-Mar-30 12:29N 17°01' W 061°46'0 0.0
2018-Mar-30 11:59N 17°01' W 061°46'0 0.0
2018-Mar-30 11:29N 17°01' W 061°46'0 0.0
2018-Mar-30 10:59N 17°01' W 061°46'0 0.0
2018-Mar-30 10:29N 17°01' W 061°46'0 0.0
2018-Mar-30 09:59N 17°01' W 061°46'0 0.0
2018-Mar-30 09:29N 17°01' W 061°46'0 0.0
2018-Mar-30 08:59N 17°01' W 061°46'0 0.0
2018-Mar-30 08:29N 17°01' W 061°46'0 0.0
2018-Mar-30 07:59N 17°01' W 061°46'0 0.0
2018-Mar-30 07:29N 17°01' W 061°46'0 0.0
2018-Mar-30 06:59N 17°01' W 061°46'0 0.0
2018-Mar-30 06:29N 17°01' W 061°46'0 0.0
2018-Mar-30 05:59N 17°01' W 061°46'0 0.0
2018-Mar-30 05:29N 17°01' W 061°46'0 0.0
2018-Mar-30 04:59N 17°01' W 061°46'0 0.0
2018-Mar-30 04:29N 17°01' W 061°46'0 0.0
2018-Mar-30 03:59N 17°01' W 061°46'0 0.0
2018-Mar-30 03:29N 17°01' W 061°46'0 0.0
2018-Mar-30 02:59N 17°01' W 061°46'0 0.0
2018-Mar-30 02:29N 17°01' W 061°46'0 0.0
2018-Mar-30 01:59N 17°01' W 061°46'0 0.0
2018-Mar-30 01:29N 17°01' W 061°46'0 0.0
2018-Mar-30 00:59N 17°01' W 061°46'0 0.0
2018-Mar-30 00:29N 17°01' W 061°46'0 0.0
2018-Mar-29 23:59N 17°01' W 061°46'0 0.0
2018-Mar-29 23:29N 17°01' W 061°46'0 0.0
2018-Mar-29 22:59N 17°01' W 061°46'0 0.0
2018-Mar-29 22:29N 17°01' W 061°46'0 0.0
2018-Mar-29 21:59N 17°01' W 061°46'0 0.0
2018-Mar-29 21:29N 17°01' W 061°46'0 0.0
2018-Mar-29 20:59N 17°01' W 061°46'0 0.0
2018-Mar-29 20:26N 17°01' W 061°46'0 0.0
2018-Mar-29 19:59N 17°01' W 061°46'0 0.0
2018-Mar-29 19:29N 17°01' W 061°46'0 0.0
2018-Mar-29 18:59N 17°01' W 061°46'0 0.0
2018-Mar-29 18:29N 17°01' W 061°46'0 0.0
2018-Mar-29 17:59N 17°01' W 061°46'0 0.0
2018-Mar-29 17:29N 17°01' W 061°46'0 0.0
2018-Mar-29 16:59N 17°01' W 061°46'0 0.0
2018-Mar-29 16:23N 17°01' W 061°46'0 0.0
2018-Mar-29 15:59N 17°01' W 061°46'0 0.0
2018-Mar-29 15:29N 17°01' W 061°46'0 0.0
2018-Mar-29 14:59N 17°01' W 061°46'0 0.0
2018-Mar-29 14:29N 17°01' W 061°46'0 0.0
2018-Mar-29 13:59N 17°01' W 061°46'0 0.0
2018-Mar-29 13:29N 17°01' W 061°46'0 0.0
2018-Mar-29 12:59N 17°01' W 061°46'0 0.0
2018-Mar-29 12:29N 17°01' W 061°46'0 0.0
2018-Mar-29 11:59N 17°01' W 061°46'0 0.0
2018-Mar-29 11:29N 17°01' W 061°46'0 0.0
2018-Mar-29 10:59N 17°01' W 061°46'0 0.0
2018-Mar-29 10:29N 17°01' W 061°46'0 0.0
2018-Mar-29 09:59N 17°01' W 061°46'0 0.0
2018-Mar-29 09:29N 17°01' W 061°46'0 0.0
2018-Mar-29 08:59N 17°01' W 061°46'0 0.0
2018-Mar-29 08:29N 17°01' W 061°46'0 0.0
2018-Mar-29 07:59N 17°01' W 061°46'0 0.0
2018-Mar-29 07:29N 17°01' W 061°46'0 0.0
2018-Mar-29 06:59N 17°01' W 061°46'0 0.0
2018-Mar-29 06:29N 17°01' W 061°46'0 0.0
2018-Mar-29 05:59N 17°01' W 061°46'0 0.0
2018-Mar-29 05:29N 17°01' W 061°46'0 0.0
2018-Mar-29 04:59N 17°01' W 061°46'0 0.0
2018-Mar-29 04:29N 17°01' W 061°46'0 0.0
2018-Mar-29 03:59N 17°01' W 061°46'0 0.0
2018-Mar-29 03:29N 17°01' W 061°46'0 0.0
2018-Mar-29 02:59N 17°01' W 061°46'0 0.0
2018-Mar-29 02:29N 17°01' W 061°46'0 0.0
2018-Mar-29 01:59N 17°01' W 061°46'0 0.0
2018-Mar-29 01:29N 17°01' W 061°46'0 0.0
2018-Mar-29 00:59N 17°01' W 061°46'0 0.0
2018-Mar-29 00:29N 17°01' W 061°46'0 0.0
2018-Mar-28 23:59N 17°01' W 061°46'0 0.0
2018-Mar-28 23:29N 17°01' W 061°46'0 0.0
2018-Mar-28 22:59N 17°01' W 061°46'0 0.0
2018-Mar-28 22:29N 17°01' W 061°46'0 0.0
2018-Mar-28 21:59N 17°01' W 061°46'0 0.0
2018-Mar-28 21:29N 17°01' W 061°46'0 0.0
2018-Mar-28 20:59N 17°01' W 061°46'0 0.0
2018-Mar-28 20:26N 17°01' W 061°46'0 0.0
2018-Mar-28 19:59N 17°01' W 061°46'0 0.0
2018-Mar-28 19:29N 17°01' W 061°46'0 0.0
2018-Mar-28 18:59N 17°01' W 061°46'0 0.0
2018-Mar-28 18:29N 17°01' W 061°46'0 0.0
2018-Mar-28 17:59N 17°01' W 061°46'0 0.0
2018-Mar-28 17:29N 17°01' W 061°46'0 0.0
2018-Mar-28 16:59N 17°01' W 061°46'0 0.0
2018-Mar-28 16:29N 17°01' W 061°46'0 0.0
2018-Mar-28 15:59N 17°01' W 061°46'0 0.0
2018-Mar-28 15:29N 17°01' W 061°46'0 0.0
2018-Mar-28 14:59N 17°01' W 061°46'0 0.0
2018-Mar-28 14:29N 17°01' W 061°46'0 0.0
2018-Mar-28 13:59N 17°01' W 061°46'0 0.0
2018-Mar-28 13:29N 17°01' W 061°46'0 0.0
2018-Mar-28 12:59N 17°01' W 061°46'0 0.0
2018-Mar-28 12:29N 17°01' W 061°46'0 0.0
2018-Mar-28 11:59N 17°01' W 061°46'0 0.0
2018-Mar-28 11:29N 17°01' W 061°46'0 0.0
2018-Mar-28 10:59N 17°01' W 061°46'0 0.0
2018-Mar-28 10:29N 17°01' W 061°46'0 0.0
2018-Mar-28 09:59N 17°01' W 061°46'0 0.0
2018-Mar-28 09:29N 17°01' W 061°46'0 0.0
2018-Mar-28 08:59N 17°01' W 061°46'0 0.0
2018-Mar-28 08:29N 17°01' W 061°46'0 0.0
2018-Mar-28 07:59N 17°01' W 061°46'0 0.0
2018-Mar-28 07:29N 17°01' W 061°46'0 0.0
2018-Mar-28 06:59N 17°01' W 061°46'0 0.0
2018-Mar-28 06:29N 17°01' W 061°46'0 0.0
2018-Mar-28 05:59N 17°01' W 061°46'0 0.0
2018-Mar-28 05:29N 17°01' W 061°46'0 0.0
2018-Mar-28 04:59N 17°01' W 061°46'0 0.0
2018-Mar-28 04:29N 17°01' W 061°46'0 0.0
2018-Mar-28 03:59N 17°01' W 061°46'0 0.0
2018-Mar-28 03:29N 17°01' W 061°46'0 0.0
2018-Mar-28 02:59N 17°01' W 061°46'0 0.0
2018-Mar-28 02:29N 17°01' W 061°46'0 0.0
2018-Mar-28 01:59N 17°01' W 061°46'0 0.0
2018-Mar-28 01:29N 17°01' W 061°46'0 0.0
2018-Mar-28 00:59N 17°01' W 061°46'0 0.0
2018-Mar-28 00:29N 17°01' W 061°46'0 0.0
2018-Mar-27 23:59N 17°01' W 061°46'0 0.0
2018-Mar-27 23:29N 17°01' W 061°46'0 0.0
2018-Mar-27 22:59N 17°01' W 061°46'0 0.0
2018-Mar-27 22:29N 17°01' W 061°46'0 0.0
2018-Mar-27 21:59N 17°01' W 061°46'0 0.0
2018-Mar-27 21:29N 17°01' W 061°46'0 0.0
2018-Mar-27 20:59N 17°01' W 061°46'0 0.0
2018-Mar-27 20:29N 17°01' W 061°46'0 0.0
2018-Mar-27 19:59N 17°01' W 061°46'0 0.0
2018-Mar-27 19:29N 17°01' W 061°46'0 0.0
2018-Mar-27 18:59N 17°01' W 061°46'0 0.0
2018-Mar-27 18:29N 17°01' W 061°46'0 0.0
2018-Mar-27 17:59N 17°01' W 061°46'0 0.0
2018-Mar-27 17:29N 17°01' W 061°46'0 0.0
2018-Mar-27 16:59N 17°01' W 061°46'0 0.0
2018-Mar-27 16:29N 17°01' W 061°46'0 0.0
2018-Mar-27 15:59N 17°01' W 061°46'0 0.0
2018-Mar-27 15:29N 17°01' W 061°46'0 0.0
2018-Mar-27 14:56N 17°01' W 061°46'0 0.0
2018-Mar-27 14:29N 17°01' W 061°46'0 0.0
2018-Mar-27 13:59N 17°01' W 061°46'0 0.0
2018-Mar-27 13:29N 17°01' W 061°46'0 0.0
2018-Mar-27 12:59N 17°01' W 061°46'0 0.0
2018-Mar-27 12:29N 17°01' W 061°46'0 0.0
2018-Mar-27 11:59N 17°01' W 061°46'0 0.0
2018-Mar-27 11:29N 17°01' W 061°46'0 0.0
2018-Mar-27 10:59N 17°01' W 061°46'0 0.0
2018-Mar-27 10:29N 17°01' W 061°46'0 0.0
2018-Mar-27 09:53N 17°01' W 061°46'0 0.0
2018-Mar-27 09:29N 17°01' W 061°46'0 0.0
2018-Mar-27 08:59N 17°01' W 061°46'0 0.0
2018-Mar-27 08:29N 17°01' W 061°46'0 0.0
2018-Mar-27 07:59N 17°01' W 061°46'0 0.0
2018-Mar-27 07:29N 17°01' W 061°46'0 0.0
2018-Mar-27 06:59N 17°01' W 061°46'0 0.0
2018-Mar-27 06:29N 17°01' W 061°46'0 0.0
2018-Mar-27 05:59N 17°01' W 061°46'0 0.0
2018-Mar-27 05:29N 17°01' W 061°46'0 0.0
2018-Mar-27 04:59N 17°01' W 061°46'0 0.0
2018-Mar-27 04:29N 17°01' W 061°46'0 0.0
2018-Mar-27 03:59N 17°01' W 061°46'0 0.0
2018-Mar-27 03:29N 17°01' W 061°46'0 0.0
2018-Mar-27 02:59N 17°01' W 061°46'0 0.0
2018-Mar-27 02:29N 17°01' W 061°46'0 0.0
2018-Mar-27 01:59N 17°01' W 061°46'0 0.0
2018-Mar-27 01:29N 17°01' W 061°46'0 0.0
2018-Mar-27 00:59N 17°01' W 061°46'0 0.0
2018-Mar-27 00:29N 17°01' W 061°46'0 0.0
2018-Mar-26 23:59N 17°01' W 061°46'0 0.0
2018-Mar-26 23:29N 17°01' W 061°46'0 0.0
2018-Mar-26 22:59N 17°01' W 061°46'0 0.0
2018-Mar-26 22:29N 17°01' W 061°46'0 0.0
2018-Mar-26 21:59N 17°01' W 061°46'0 0.0
2018-Mar-26 21:29N 17°01' W 061°46'0 0.0
2018-Mar-26 20:59N 17°01' W 061°46'0 0.0
2018-Mar-26 20:29N 17°01' W 061°46'0 0.0
2018-Mar-26 19:59N 17°01' W 061°46'0 0.0
2018-Mar-26 19:29N 17°01' W 061°46'0 0.0
2018-Mar-26 18:59N 17°01' W 061°46'0 0.0
2018-Mar-26 18:29N 17°01' W 061°46'0 0.0
2018-Mar-26 17:59N 17°01' W 061°46'0 0.0
2018-Mar-26 17:29N 17°01' W 061°46'0 0.0
2018-Mar-26 16:59N 17°01' W 061°46'0 0.0
2018-Mar-26 16:29N 17°01' W 061°46'0 0.0
2018-Mar-26 15:59N 17°01' W 061°46'0 0.0
2018-Mar-26 15:29N 17°01' W 061°46'0 0.0
2018-Mar-26 14:59N 17°01' W 061°46'0 0.0
2018-Mar-26 14:29N 17°01' W 061°46'0 0.0
2018-Mar-26 13:59N 17°01' W 061°46'0 0.0
2018-Mar-26 13:29N 17°01' W 061°46'0 0.0
2018-Mar-26 12:59N 17°01' W 061°46'0 0.0
2018-Mar-26 12:29N 17°01' W 061°46'0 0.0
2018-Mar-26 11:59N 17°01' W 061°46'0 0.0
2018-Mar-26 11:29N 17°01' W 061°46'0 0.0
2018-Mar-26 10:59N 17°01' W 061°46'0 0.0
2018-Mar-26 10:29N 17°01' W 061°46'0 0.0
2018-Mar-26 09:59N 17°01' W 061°46'0 0.0
2018-Mar-26 09:29N 17°01' W 061°46'0 0.0
2018-Mar-26 08:59N 17°01' W 061°46'0 0.0
2018-Mar-26 08:29N 17°01' W 061°46'0 0.0
2018-Mar-26 07:59N 17°01' W 061°46'0 0.0
2018-Mar-26 07:29N 17°01' W 061°46'0 0.0
2018-Mar-26 06:59N 17°01' W 061°46'0 0.0
2018-Mar-26 06:29N 17°01' W 061°46'0 0.0
2018-Mar-26 05:59N 17°01' W 061°46'0 0.0
2018-Mar-26 05:29N 17°01' W 061°46'0 0.0
2018-Mar-26 04:59N 17°01' W 061°46'0 0.0
2018-Mar-26 04:29N 17°01' W 061°46'0 0.0
2018-Mar-26 03:59N 17°01' W 061°46'0 0.0
2018-Mar-26 03:29N 17°01' W 061°46'0 0.0
2018-Mar-26 02:59N 17°01' W 061°46'0 0.0
2018-Mar-26 02:29N 17°01' W 061°46'0 0.0
2018-Mar-26 01:59N 17°01' W 061°46'0 0.0
2018-Mar-26 01:29N 17°01' W 061°46'0 0.0
2018-Mar-26 00:59N 17°01' W 061°46'0 0.0
2018-Mar-26 00:29N 17°01' W 061°46'0 0.0
2018-Mar-25 23:59N 17°01' W 061°46'0 0.0
2018-Mar-25 23:29N 17°01' W 061°46'0 0.0
2018-Mar-25 22:56N 17°01' W 061°46'0 0.0
2018-Mar-25 22:29N 17°01' W 061°46'0 0.0
2018-Mar-25 21:59N 17°01' W 061°46'0 0.0
2018-Mar-25 21:29N 17°01' W 061°46'0 0.0
2018-Mar-25 20:59N 17°01' W 061°46'0 0.0
2018-Mar-25 20:29N 17°01' W 061°46'0 0.0
2018-Mar-25 19:59N 17°01' W 061°46'0 0.0
2018-Mar-25 19:29N 17°01' W 061°46'0 0.0
2018-Mar-25 18:56N 17°01' W 061°46'0 0.0
2018-Mar-25 18:29N 17°01' W 061°46'0 0.0
2018-Mar-25 17:59N 17°01' W 061°46'0 0.0
2018-Mar-25 17:29N 17°01' W 061°46'0 0.0
2018-Mar-25 16:59N 17°01' W 061°46'0 0.0
2018-Mar-25 16:29N 17°01' W 061°46'0 0.0
2018-Mar-25 15:59N 17°01' W 061°46'0 0.0
2018-Mar-25 15:29N 17°01' W 061°46'0 0.0
2018-Mar-25 14:59N 17°01' W 061°46'0 0.0
2018-Mar-25 14:29N 17°01' W 061°46'0 0.0
2018-Mar-25 13:59N 17°01' W 061°46'0 0.0
2018-Mar-25 13:29N 17°01' W 061°46'0 0.0
2018-Mar-25 12:59N 17°01' W 061°46'0 0.0
2018-Mar-25 12:29N 17°01' W 061°46'0 0.0
2018-Mar-25 11:59N 17°01' W 061°46'0 0.0
2018-Mar-25 11:29N 17°01' W 061°46'0 0.0
2018-Mar-25 10:59N 17°01' W 061°46'0 0.0
2018-Mar-25 10:29N 17°01' W 061°46'  

Dump ship's entire track history